Time;durP1;ratioP1;P1;durP2;ratioP2;P2;SDS_P1;SDS_P2;PMS_P1;PMS_P2;Temp;Humidity;BMP_temperature;BMP_pressure;BME280_temperature;BME280_humidity;BME280_pressure;Samples;Min_cycle;Max_cycle;Signal;HPM_P1;HPM_P2
2023/05/14 07:53:30;;;;;;;3.00;1.00;;;;;;;24.62;27.25;100199.28;5102986;27;20425;-37
2023/05/14 07:55:58;;;;;;;1.15;0.95;;;;;;;24.42;27.51;100173.53;5074458;28;20383;-37
2023/05/14 07:58:26;;;;;;;2.58;0.90;;;;;;;24.31;27.60;100197.50;5059456;28;20126;-36
2023/05/14 08:00:52;;;;;;;3.07;1.20;;;;;;;23.92;27.90;100196.25;5096143;28;20032;-37
2023/05/14 08:03:18;;;;;;;2.88;1.10;;;;;;;23.50;28.35;100196.09;5098963;28;20089;-35
2023/05/14 08:05:44;;;;;;;6.03;1.30;;;;;;;23.36;28.83;100196.31;5102124;28;20203;-36
2023/05/14 08:08:11;;;;;;;7.03;1.92;;;;;;;23.84;28.62;100196.91;5085495;28;20127;-38
2023/05/14 08:10:37;;;;;;;5.78;1.42;;;;;;;24.59;27.78;100198.69;5101764;28;20495;-34
2023/05/14 08:13:03;;;;;;;4.20;1.20;;;;;;;25.61;26.50;100188.03;5098310;28;20040;-34
2023/05/14 08:15:29;;;;;;;5.97;1.30;;;;;;;25.89;26.20;100205.09;5084362;28;20043;-35
2023/05/14 08:17:54;;;;;;;2.83;1.20;;;;;;;25.83;25.59;100197.63;5087033;28;20035;-39
2023/05/14 08:20:21;;;;;;;5.85;1.00;;;;;;;25.66;25.89;100194.66;5069477;28;20404;-36
2023/05/14 08:22:46;;;;;;;3.65;0.90;;;;;;;25.10;26.23;100193.44;5085766;28;20040;-44
2023/05/14 08:25:12;;;;;;;3.85;1.00;;;;;;;24.50;26.84;100200.28;5099551;28;20051;-35
2023/05/14 08:27:39;;;;;;;3.13;1.20;;;;;;;23.71;27.79;100182.09;5104714;28;20035;-35
2023/05/14 08:30:06;;;;;;;2.75;1.20;;;;;;;23.28;28.69;100201.41;5099101;28;20046;-37
2023/05/14 08:32:32;;;;;;;4.32;1.20;;;;;;;22.74;29.39;100201.22;5053061;28;20046;-37
2023/05/14 08:34:58;;;;;;;4.20;1.20;;;;;;;22.19;29.79;100168.22;5105046;28;20434;-36
2023/05/14 08:37:24;;;;;;;2.20;1.13;;;;;;;22.09;30.27;100198.16;5098985;28;20578;-36
2023/05/14 08:39:50;;;;;;;1.65;1.10;;;;;;;21.98;30.30;100201.63;5066249;28;20051;-36
2023/05/14 08:42:20;;;;;;;1.95;1.35;;;;;;;22.04;30.14;100193.22;5098255;28;20418;-37
2023/05/14 08:44:54;;;;;;;3.63;1.63;;;;;;;22.54;30.18;100191.25;5098316;28;20049;-36
2023/05/14 08:47:21;;;;;;;1.80;1.30;;;;;;;24.56;28.32;100199.78;5074720;28;20111;-35
2023/05/14 08:50:03;;;;;;;3.03;1.10;;;;;;;25.36;27.50;100200.00;5097452;28;20035;-35
2023/05/14 08:52:30;;;;;;;4.30;1.33;;;;;;;25.17;27.68;100191.94;5102597;28;20099;-34
2023/05/14 08:54:58;;;;;;;2.03;1.10;;;;;;;24.73;28.16;100195.69;5084755;28;20044;-34
2023/05/14 08:57:25;;;;;;;4.57;1.65;;;;;;;24.26;28.44;100170.47;5084349;28;20040;-34
2023/05/14 08:59:52;;;;;;;2.90;1.60;;;;;;;25.46;27.55;100168.06;5105964;28;20047;-33
2023/05/14 09:02:23;;;;;;;15.23;8.95;;;;;;;28.80;24.41;100202.84;5108826;28;20558;-34
2023/05/14 09:04:54;;;;;;;2.78;1.23;;;;;;;30.83;22.31;100199.81;5075438;28;20461;-34
2023/05/14 09:07:20;;;;;;;6.07;0.90;;;;;;;29.94;22.78;100186.34;5089323;28;20643;-34
2023/05/14 09:09:47;;;;;;;6.28;1.27;;;;;;;28.98;23.19;100203.66;5055898;28;20526;-34
2023/05/14 09:12:13;;;;;;;1.98;1.45;;;;;;;27.86;23.90;100196.28;5038384;28;20519;-35
2023/05/14 09:14:39;;;;;;;4.07;1.13;;;;;;;26.76;24.85;100195.28;5088401;28;20085;-34
2023/05/14 09:17:05;;;;;;;1.52;0.93;;;;;;;25.85;25.69;100193.03;5072548;28;20036;-35
2023/05/14 09:19:31;;;;;;;6.25;1.10;;;;;;;25.10;26.36;100202.25;5055455;28;20044;-33
2023/05/14 09:22:00;;;;;;;1.60;0.90;;;;;;;24.34;26.91;100168.00;5079184;28;20517;-36
2023/05/14 09:24:30;;;;;;;1.80;1.10;;;;;;;24.01;27.27;100201.69;5068571;28;20040;-35
2023/05/14 09:26:57;;;;;;;6.97;1.00;;;;;;;23.71;27.66;100196.19;5090159;28;20575;-34
2023/05/14 09:29:28;;;;;;;2.70;0.93;;;;;;;23.67;27.64;100193.91;5081599;28;20975;-35
2023/05/14 09:31:55;;;;;;;3.78;0.93;;;;;;;23.76;27.47;100188.69;5076705;28;20053;-34
2023/05/14 09:34:36;;;;;;;4.75;1.10;;;;;;;23.94;27.42;100189.88;5058963;28;20044;-34
2023/05/14 09:37:07;;;;;;;3.63;0.98;;;;;;;23.92;27.34;100185.63;5071283;28;20028;-36
2023/05/14 09:39:37;;;;;;;2.65;1.25;;;;;;;23.92;27.63;100189.13;5084224;28;20048;-35
2023/05/14 09:42:04;;;;;;;2.55;1.20;;;;;;;23.70;28.16;100189.22;5087972;28;20039;-33
2023/05/14 09:44:30;;;;;;;8.00;1.92;;;;;;;23.28;28.67;100168.72;5087784;28;20063;-34
2023/05/14 09:46:56;;;;;;;3.72;1.10;;;;;;;22.97;28.78;100154.38;5089788;28;20463;-34
2023/05/14 09:49:22;;;;;;;4.32;1.00;;;;;;;23.16;28.85;100183.78;5087448;28;20054;-34
2023/05/14 09:51:48;;;;;;;3.00;1.15;;;;;;;23.07;29.10;100176.56;5065417;28;20044;-34
2023/05/14 09:54:14;;;;;;;2.90;0.90;;;;;;;22.89;29.11;100191.22;5079084;28;20524;-33
2023/05/14 09:56:41;;;;;;;2.85;1.30;;;;;;;22.93;28.98;100182.06;5085115;28;20081;-34
2023/05/14 09:59:07;;;;;;;3.72;1.25;;;;;;;23.37;28.63;100184.75;5067176;28;20152;-35
2023/05/14 10:01:34;;;;;;;3.42;0.90;;;;;;;23.61;28.24;100177.50;5066891;28;20561;-35
2023/05/14 10:04:02;;;;;;;2.25;0.98;;;;;;;23.44;28.22;100158.56;5059301;28;20048;-34
2023/05/14 10:06:33;;;;;;;4.30;1.20;;;;;;;23.36;28.41;100176.91;5049170;28;20045;-38
2023/05/14 10:09:04;;;;;;;2.28;1.17;;;;;;;23.15;28.71;100177.63;5078057;28;20040;-35
2023/05/14 10:11:32;;;;;;;3.70;1.10;;;;;;;23.05;29.09;100186.44;5057062;28;20159;-36
2023/05/14 10:14:17;;;;;;;4.77;1.77;;;;;;;22.90;29.06;100151.34;5067086;28;20475;-35
2023/05/14 10:16:47;;;;;;;7.90;2.00;;;;;;;23.43;28.90;100170.16;5086592;28;20048;-36
2023/05/14 10:19:14;;;;;;;4.55;1.13;;;;;;;25.25;27.21;100182.28;5070620;28;20051;-36
2023/05/14 10:21:44;;;;;;;2.97;1.10;;;;;;;25.31;26.51;100187.09;5071435;28;20097;-37
2023/05/14 10:24:11;;;;;;;1.65;1.15;;;;;;;24.94;26.86;100172.63;5071438;28;20606;-37
2023/05/14 10:26:38;;;;;;;5.93;1.08;;;;;;;24.45;27.39;100184.72;5087337;28;20549;-36
2023/05/14 10:29:10;;;;;;;6.22;1.70;;;;;;;24.03;27.44;100182.94;5079320;28;20040;-37
2023/05/14 10:31:48;;;;;;;7.35;1.50;;;;;;;23.49;27.93;100181.16;5084197;28;20078;-35
2023/05/14 10:34:43;;;;;;;2.08;1.10;;;;;;;23.01;28.41;100185.84;5069131;28;20076;-36
2023/05/14 10:37:14;;;;;;;2.47;1.05;;;;;;;22.80;28.77;100177.72;5060137;28;20051;-35
2023/05/14 10:39:49;;;;;;;3.53;1.10;;;;;;;22.66;29.10;100183.19;5094658;28;20052;-34
2023/05/14 10:42:21;;;;;;;3.22;1.20;;;;;;;22.50;29.07;100172.09;5094851;28;20088;-36
2023/05/14 10:45:07;;;;;;;5.70;1.25;;;;;;;22.47;28.90;100174.97;5088269;28;20036;-37
2023/05/14 10:47:44;;;;;;;7.15;1.10;;;;;;;22.57;28.85;100177.75;5080710;28;20096;-37
2023/05/14 10:50:12;;;;;;;2.05;1.20;;;;;;;22.67;28.94;100173.44;5063845;28;20044;-36
2023/05/14 10:52:40;;;;;;;5.57;0.90;;;;;;;22.79;28.85;100178.69;5057101;28;20558;-36
2023/05/14 10:55:06;;;;;;;6.55;1.25;;;;;;;22.78;28.74;100153.13;5056430;28;20044;-37
2023/05/14 10:57:35;;;;;;;4.97;1.08;;;;;;;23.08;28.83;100178.25;5085900;28;20131;-36
2023/05/14 11:00:01;;;;;;;6.47;1.30;;;;;;;23.15;28.63;100151.09;5069842;28;20060;-36
2023/05/14 11:02:35;;;;;;;3.20;1.30;;;;;;;23.49;28.44;100164.38;5047455;28;20043;-36
2023/05/14 11:05:03;;;;;;;4.90;1.42;;;;;;;23.73;28.24;100177.47;5086581;28;20067;-36
2023/05/14 11:07:38;;;;;;;2.20;1.20;;;;;;;23.82;28.12;100147.50;5090146;28;20480;-36
2023/05/14 11:10:09;;;;;;;2.88;1.30;;;;;;;24.26;27.65;100173.13;5053775;28;20486;-36
2023/05/14 11:12:36;;;;;;;3.70;1.17;;;;;;;25.33;26.52;100170.13;5095713;28;20046;-38
2023/05/14 11:15:05;;;;;;;4.80;1.20;;;;;;;26.87;25.16;100171.97;5091085;28;20454;-35
2023/05/14 11:17:31;;;;;;;2.90;1.23;;;;;;;29.28;23.17;100183.56;5053115;28;20078;-34
2023/05/14 11:19:58;;;;;;;5.28;1.42;;;;;;;30.42;22.11;100165.94;5061192;28;20051;-35
2023/05/14 11:22:24;;;;;;;2.22;1.13;;;;;;;30.61;22.01;100171.84;5087139;28;20434;-37
2023/05/14 11:24:50;;;;;;;3.10;0.77;;;;;;;30.27;22.14;100161.25;5071408;28;20047;-37
2023/05/14 11:27:17;;;;;;;1.98;1.02;;;;;;;31.01;21.03;100160.19;5051311;28;20043;-36
2023/05/14 11:29:47;;;;;;;3.95;1.00;;;;;;;30.48;21.22;100163.47;5053187;28;20507;-35
2023/05/14 11:32:14;;;;;;;1.45;0.90;;;;;;;29.22;21.92;100168.97;5091199;28;20043;-36
2023/05/14 11:34:43;;;;;;;7.68;2.33;;;;;;;28.10;22.73;100165.31;5086854;28;20051;-37
2023/05/14 11:37:11;;;;;;;4.20;0.98;;;;;;;27.18;23.61;100142.34;5078662;28;20088;-37
2023/05/14 11:39:37;;;;;;;2.08;1.10;;;;;;;26.68;23.86;100158.66;5061298;28;20454;-36
2023/05/14 11:42:11;;;;;;;1.60;0.85;;;;;;;26.28;24.00;100163.31;5066410;28;20051;-36
2023/05/14 11:44:43;;;;;;;2.60;0.90;;;;;;;26.09;24.19;100157.00;5060673;28;20074;-36
2023/05/14 11:47:09;;;;;;;5.10;1.17;;;;;;;26.31;24.38;100141.72;5075448;28;20067;-37
2023/05/14 11:49:36;;;;;;;2.95;1.63;;;;;;;27.02;23.67;100153.66;5085086;28;20538;-36
2023/05/14 11:52:04;;;;;;;1.45;0.82;;;;;;;27.93;22.64;100154.59;5066617;28;20187;-37
2023/05/14 11:54:32;;;;;;;2.05;1.10;;;;;;;28.54;22.35;100166.19;5042600;28;20701;-36
2023/05/14 11:56:59;;;;;;;3.90;1.40;;;;;;;29.62;21.62;100156.78;5040590;28;20095;-37
2023/05/14 11:59:30;;;;;;;3.75;1.00;;;;;;;30.23;21.09;100157.22;5045768;28;20330;-36
2023/05/14 12:01:57;;;;;;;1.60;1.00;;;;;;;30.47;20.87;100160.94;5039902;28;20037;-37
2023/05/14 12:04:23;;;;;;;3.15;1.00;;;;;;;31.52;20.13;100158.81;5047232;28;20106;-36
2023/05/14 12:06:50;;;;;;;1.83;1.00;;;;;;;31.95;19.43;100157.44;5050032;28;20043;-37
2023/05/14 12:09:19;;;;;;;1.65;0.90;;;;;;;31.27;19.72;100159.13;5049291;28;20048;-35
2023/05/14 12:11:46;;;;;;;2.05;1.00;;;;;;;30.21;20.61;100158.41;5049622;28;20028;-35
2023/05/14 12:14:20;;;;;;;2.65;0.90;;;;;;;29.36;20.98;100162.22;5046435;28;20435;-37
2023/05/14 12:16:47;;;;;;;1.02;0.80;;;;;;;29.29;21.12;100159.31;5028688;28;20578;-39
2023/05/14 12:19:15;;;;;;;2.50;1.20;;;;;;;28.60;21.75;100154.88;5045724;28;20052;-36
2023/05/14 12:21:46;;;;;;;5.40;1.45;;;;;;;28.14;22.45;100155.16;5051808;28;20053;-35
2023/05/14 12:24:14;;;;;;;6.03;3.60;;;;;;;27.52;22.37;100126.59;5055972;28;20048;-37
2023/05/14 12:26:45;;;;;;;3.78;2.60;;;;;;;27.03;22.67;100149.16;5023721;28;20072;-37
2023/05/14 12:29:13;;;;;;;2.58;1.58;;;;;;;26.52;23.60;100147.72;5018576;28;20041;-37
2023/05/14 12:31:45;;;;;;;5.28;3.13;;;;;;;25.94;24.21;100139.72;5041995;28;20040;-37
2023/05/14 12:34:12;;;;;;;3.28;1.80;;;;;;;25.31;24.98;100131.19;5044251;28;20060;-37
2023/05/14 12:36:37;;;;;;;3.58;1.60;;;;;;;24.93;25.48;100130.19;5026113;28;20037;-37
2023/05/14 12:39:04;;;;;;;7.28;4.63;;;;;;;24.78;25.78;100149.13;5045874;28;20071;-36
2023/05/14 12:41:31;;;;;;;9.65;7.82;;;;;;;24.56;26.32;100138.63;5028524;28;20538;-36
2023/05/14 12:43:57;;;;;;;9.68;2.67;;;;;;;24.52;26.80;100154.97;5045281;28;20570;-37
2023/05/14 12:46:26;;;;;;;5.28;2.50;;;;;;;24.37;26.99;100150.00;5042768;28;20045;-36
2023/05/14 12:48:53;;;;;;;4.18;1.33;;;;;;;24.12;27.31;100150.31;5040387;28;20072;-37
2023/05/14 12:51:19;;;;;;;3.72;0.90;;;;;;;23.78;27.77;100138.97;5057572;28;20111;-37
2023/05/14 12:53:45;;;;;;;3.72;1.05;;;;;;;23.74;27.83;100150.81;5076601;28;20105;-37
2023/05/14 12:56:11;;;;;;;4.53;1.10;;;;;;;23.58;28.04;100150.38;5069411;28;20036;-36
2023/05/14 12:58:40;;;;;;;3.72;0.90;;;;;;;23.42;28.30;100150.72;5064490;28;20047;-37
2023/05/14 13:01:07;;;;;;;3.75;2.08;;;;;;;23.29;28.57;100149.19;5043554;28;20624;-36
2023/05/14 13:03:33;;;;;;;7.43;2.00;;;;;;;23.19;28.84;100143.72;5062299;28;20055;-37
2023/05/14 13:05:59;;;;;;;1.95;1.17;;;;;;;23.10;28.96;100144.47;5080270;28;20039;-37
2023/05/14 13:08:25;;;;;;;5.22;1.60;;;;;;;22.97;29.49;100149.91;5048202;28;20692;-36
2023/05/14 13:10:52;;;;;;;7.03;1.25;;;;;;;22.78;29.58;100145.19;5082653;28;20036;-39
2023/05/14 13:13:18;;;;;;;4.63;1.20;;;;;;;22.54;29.73;100146.19;5063316;28;20131;-37
2023/05/14 13:15:45;;;;;;;3.10;1.02;;;;;;;22.34;29.94;100153.88;5043862;28;20075;-36
2023/05/14 13:18:15;;;;;;;3.22;1.23;;;;;;;22.12;30.28;100152.94;5078598;28;20048;-37
2023/05/14 13:20:41;;;;;;;6.15;1.38;;;;;;;21.90;30.60;100135.09;5084017;28;20036;-37
2023/05/14 13:23:07;;;;;;;5.57;1.88;;;;;;;21.79;30.74;100130.59;5077375;28;20127;-37
2023/05/14 13:25:34;;;;;;;11.85;1.70;;;;;;;21.90;30.80;100161.59;5082646;28;20419;-37
2023/05/14 13:28:00;;;;;;;3.15;1.60;;;;;;;21.59;30.98;100130.38;5086970;28;20089;-38
2023/05/14 13:30:26;;;;;;;4.00;1.20;;;;;;;21.54;31.18;100155.38;5081408;28;20036;-36
2023/05/14 13:32:52;;;;;;;6.78;2.05;;;;;;;21.34;31.40;100158.59;5081195;28;20622;-36
2023/05/14 13:35:18;;;;;;;4.18;1.15;;;;;;;21.19;31.59;100162.34;5079395;28;20048;-36
2023/05/14 13:37:44;;;;;;;2.75;1.15;;;;;;;20.95;32.24;100145.50;5045462;28;20052;-37
2023/05/14 13:40:11;;;;;;;4.47;1.20;;;;;;;20.98;32.39;100159.38;5043961;28;20036;-38
2023/05/14 13:42:38;;;;;;;4.07;1.48;;;;;;;20.72;32.55;100120.69;5061765;28;20036;-37
2023/05/14 13:45:05;;;;;;;2.70;1.30;;;;;;;20.89;32.63;100162.63;5083461;28;20039;-37
2023/05/14 13:47:35;;;;;;;2.33;1.27;;;;;;;20.84;32.67;100163.88;5043775;28;20393;-38
2023/05/14 13:50:01;;;;;;;5.00;1.10;;;;;;;20.79;32.46;100164.22;5050319;28;20048;-36
2023/05/14 13:52:28;;;;;;;2.88;1.08;;;;;;;20.70;32.66;100155.13;5067427;28;20055;-35
2023/05/14 13:54:55;;;;;;;5.43;1.13;;;;;;;20.73;32.48;100166.47;5049111;28;20061;-37
2023/05/14 13:57:21;;;;;;;2.60;1.05;;;;;;;20.70;32.65;100164.84;5067105;28;20530;-36
2023/05/14 13:59:47;;;;;;;3.30;1.20;;;;;;;20.75;32.63;100162.75;5084087;28;20559;-37
2023/05/14 14:02:14;;;;;;;2.97;0.88;;;;;;;20.81;32.80;100158.84;5052394;28;20043;-37
2023/05/14 14:04:40;;;;;;;2.40;1.00;;;;;;;20.68;32.92;100135.03;5046115;28;20055;-37
2023/05/14 14:07:07;;;;;;;2.58;1.50;;;;;;;20.78;32.98;100151.13;5063917;28;20047;-37
2023/05/14 14:09:35;;;;;;;7.05;1.65;;;;;;;20.95;33.15;100158.72;5080871;28;20047;-35
2023/05/14 14:12:05;;;;;;;10.60;2.95;;;;;;;20.82;33.33;100140.22;5070803;28;20047;-37
2023/05/14 14:14:31;;;;;;;3.15;1.20;;;;;;;20.70;32.88;100141.91;5048421;28;20060;-37
2023/05/14 14:16:57;;;;;;;1.25;1.05;;;;;;;20.72;32.89;100162.97;5068923;28;20055;-37
2023/05/14 14:19:22;;;;;;;26.05;2.10;;;;;;;20.59;32.90;100162.09;5084264;28;20044;-36
2023/05/14 14:21:48;;;;;;;3.15;1.10;;;;;;;20.31;33.12;100144.59;5083050;28;20051;-38
2023/05/14 14:24:14;;;;;;;3.13;1.60;;;;;;;20.29;33.18;100159.69;5069552;28;20130;-37
2023/05/14 14:26:40;;;;;;;1.45;0.90;;;;;;;20.22;32.94;100153.97;5078085;28;20040;-36
2023/05/14 14:29:06;;;;;;;4.00;1.38;;;;;;;20.12;32.95;100152.03;5068588;28;20142;-35
2023/05/14 14:31:32;;;;;;;28.08;2.22;;;;;;;19.98;33.28;100155.59;5067859;28;20120;-37
2023/05/14 14:33:58;;;;;;;12.32;1.52;;;;;;;19.93;33.31;100149.78;5084406;28;20134;-37
2023/05/14 14:36:24;;;;;;;9.55;2.50;;;;;;;19.96;33.51;100148.72;5067227;28;20047;-36
2023/05/14 14:38:51;;;;;;;3.15;1.40;;;;;;;19.98;33.35;100155.59;5066457;28;20047;-36
2023/05/14 14:41:17;;;;;;;3.55;1.20;;;;;;;19.87;33.54;100144.91;5080448;28;20040;-36
2023/05/14 14:43:43;;;;;;;11.35;1.88;;;;;;;19.55;34.03;100125.03;5067141;28;20515;-36
2023/05/14 14:46:09;;;;;;;7.10;1.38;;;;;;;19.49;34.44;100149.16;5087331;28;20036;-47
2023/05/14 14:48:36;;;;;;;3.08;1.05;;;;;;;19.22;34.78;100127.97;5051999;28;20036;-36
2023/05/14 14:51:04;;;;;;;4.13;1.48;;;;;;;19.23;35.19;100154.25;5078951;28;20573;-36
2023/05/14 14:53:29;;;;;;;6.28;1.70;;;;;;;19.04;35.48;100141.38;5044711;28;20036;-35
2023/05/14 14:55:56;;;;;;;2.05;1.10;;;;;;;18.78;35.42;100107.88;5079042;28;20043;-37
2023/05/14 14:58:23;;;;;;;6.38;1.83;;;;;;;19.03;35.53;100155.50;5079335;28;20048;-36
2023/05/14 15:00:50;;;;;;;12.15;1.60;;;;;;;19.02;35.64;100159.06;5052777;28;20032;-36
2023/05/14 15:03:17;;;;;;;2.00;1.30;;;;;;;19.04;35.81;100156.34;5083440;28;20044;-36
2023/05/14 15:05:43;;;;;;;2.95;1.20;;;;;;;18.92;35.82;100144.75;5066893;28;20065;-37
2023/05/14 15:08:09;;;;;;;5.05;2.20;;;;;;;19.03;35.93;100159.91;5065292;28;20035;-37
2023/05/14 15:10:38;;;;;;;5.55;1.88;;;;;;;19.00;35.70;100168.84;5062811;28;20759;-37
2023/05/14 15:13:05;;;;;;;4.93;2.63;;;;;;;18.95;35.74;100159.50;5084790;28;20036;-38
2023/05/14 15:15:35;;;;;;;4.32;1.75;;;;;;;18.93;35.91;100167.53;5068510;28;20039;-35
2023/05/14 15:18:02;;;;;;;4.00;1.67;;;;;;;18.95;35.79;100159.50;5050259;28;20076;-34
2023/05/14 15:20:28;;;;;;;3.45;1.20;;;;;;;18.95;35.73;100160.38;5029842;28;20044;-36
2023/05/14 15:22:54;;;;;;;3.05;1.90;;;;;;;18.94;35.95;100157.84;5066360;28;20040;-37
2023/05/14 15:25:22;;;;;;;6.65;2.85;;;;;;;18.88;36.02;100164.34;5035148;28;20070;-35
2023/05/14 15:27:48;;;;;;;7.25;1.80;;;;;;;18.76;36.08;100144.00;5081089;28;20052;-37
2023/05/14 15:30:14;;;;;;;3.60;2.50;;;;;;;18.81;36.17;100162.16;5080349;28;20496;-34
2023/05/14 15:32:41;;;;;;;14.88;7.82;;;;;;;18.72;36.27;100160.06;5054665;28;20048;-36
2023/05/14 15:35:07;;;;;;;3.20;1.48;;;;;;;18.64;36.31;100150.00;5042232;28;20185;-36
2023/05/14 15:37:38;;;;;;;3.58;1.30;;;;;;;18.41;36.40;100130.28;5080664;28;20466;-35
2023/05/14 15:40:09;;;;;;;8.13;1.27;;;;;;;18.42;36.50;100157.47;5060847;28;20097;-35
2023/05/14 15:42:36;;;;;;;4.70;1.38;;;;;;;18.29;36.90;100159.09;5044918;28;20514;-36
2023/05/14 15:45:03;;;;;;;3.08;1.50;;;;;;;18.16;37.12;100158.97;5042106;28;20036;-36
2023/05/14 15:47:31;;;;;;;5.85;3.40;;;;;;;18.03;37.24;100153.56;5059732;28;20044;-37
2023/05/14 15:49:57;;;;;;;3.78;1.60;;;;;;;17.93;37.72;100151.56;5080599;28;20526;-35
2023/05/14 15:52:23;;;;;;;4.50;1.45;;;;;;;17.61;37.95;100111.28;5083666;28;20056;-37
2023/05/14 15:54:49;;;;;;;5.20;1.42;;;;;;;17.71;38.17;100150.13;5082824;28;20131;-36
2023/05/14 15:57:15;;;;;;;15.38;5.25;;;;;;;17.61;38.19;100150.72;5067396;28;20101;-36
2023/05/14 15:59:43;;;;;;;4.30;2.47;;;;;;;17.50;38.53;100151.28;5081316;28;20032;-36
2023/05/14 16:02:09;;;;;;;2.25;1.83;;;;;;;17.43;38.72;100138.59;5063341;28;20070;-36
2023/05/14 16:04:35;;;;;;;3.72;1.70;;;;;;;17.39;38.69;100140.53;5066079;28;20043;-37
2023/05/14 16:07:03;;;;;;;6.25;2.38;;;;;;;17.39;39.21;100143.16;5081023;28;20040;-36
2023/05/14 16:09:29;;;;;;;5.47;2.38;;;;;;;17.36;39.31;100151.22;5081676;28;20043;-36
2023/05/14 16:11:55;;;;;;;5.55;1.70;;;;;;;17.37;39.12;100142.41;5067030;28;20047;-35
2023/05/14 16:14:21;;;;;;;7.60;2.08;;;;;;;17.33;39.04;100148.72;5087289;28;20074;-36
2023/05/14 16:16:48;;;;;;;8.60;1.85;;;;;;;17.19;39.36;100148.66;5077848;28;20073;-37
2023/05/14 16:19:14;;;;;;;4.95;1.50;;;;;;;17.05;39.36;100159.06;5087811;28;20130;-36
2023/05/14 16:21:40;;;;;;;5.72;1.70;;;;;;;16.75;39.76;100137.84;5085093;28;20631;-37
2023/05/14 16:24:06;;;;;;;5.18;1.40;;;;;;;16.45;40.13;100112.25;5077637;28;20035;-37
2023/05/14 16:26:32;;;;;;;9.95;1.60;;;;;;;16.51;40.80;100151.31;5090219;28;20048;-37
2023/05/14 16:28:58;;;;;;;2.30;1.77;;;;;;;16.19;41.00;100117.13;5055642;28;20068;-36
2023/05/14 16:31:24;;;;;;;3.05;1.70;;;;;;;16.27;40.90;100159.59;5091936;28;20082;-37
2023/05/14 16:33:50;;;;;;;5.35;3.20;;;;;;;16.21;40.83;100160.75;5095601;28;20035;-37
2023/05/14 16:36:16;;;;;;;3.20;2.40;;;;;;;16.15;40.82;100161.03;5097258;28;20640;-37
2023/05/14 16:38:42;;;;;;;3.38;2.20;;;;;;;15.93;40.65;100127.16;5088262;28;20505;-38
2023/05/14 16:41:10;;;;;;;4.78;2.30;;;;;;;15.96;40.81;100150.59;5056798;28;20127;-36
2023/05/14 16:43:36;;;;;;;7.57;3.22;;;;;;;16.06;40.96;100164.97;5083510;28;20088;-36
2023/05/14 16:46:03;;;;;;;5.97;2.88;;;;;;;16.03;41.26;100169.50;5086728;28;20046;-37
2023/05/14 16:48:28;;;;;;;2.80;2.50;;;;;;;15.99;41.01;100175.84;5085414;28;20123;-37
2023/05/14 16:50:55;;;;;;;10.45;3.28;;;;;;;15.91;41.04;100165.69;5069798;28;20047;-37
2023/05/14 16:53:20;;;;;;;6.13;2.90;;;;;;;15.83;41.51;100178.34;5085696;28;20155;-38
2023/05/14 16:55:46;;;;;;;3.17;2.88;;;;;;;15.73;41.47;100177.09;5082247;28;20097;-38
2023/05/14 16:58:12;;;;;;;6.28;3.30;;;;;;;15.67;41.35;100174.75;5050497;28;20036;-37
2023/05/14 17:00:38;;;;;;;6.78;3.17;;;;;;;15.42;41.77;100145.34;5069036;28;20063;-36
2023/05/14 17:03:05;;;;;;;8.07;3.15;;;;;;;15.51;42.00;100176.34;5067541;28;20417;-37
2023/05/14 17:05:31;;;;;;;4.63;3.00;;;;;;;15.44;41.83;100174.97;5050277;28;20052;-36
2023/05/14 17:07:57;;;;;;;8.07;3.25;;;;;;;15.43;42.13;100179.34;5070042;28;20081;-37
2023/05/14 17:10:24;;;;;;;7.30;5.68;;;;;;;15.43;41.76;100179.34;5071919;28;20123;-41
2023/05/14 17:12:50;;;;;;;13.70;8.98;;;;;;;15.41;41.95;100175.09;5090234;28;20040;-37
2023/05/14 17:15:16;;;;;;;38.67;19.52;;;;;;;15.45;41.82;100182.72;5090375;28;20051;-37
2023/05/14 17:17:41;;;;;;;17.55;8.73;;;;;;;15.31;41.70;100161.56;5087769;28;20039;-36
2023/05/14 17:20:08;;;;;;;12.80;8.52;;;;;;;15.41;41.98;100183.81;5071091;28;20043;-36
2023/05/14 17:22:34;;;;;;;8.68;5.40;;;;;;;15.17;41.97;100150.88;5071064;28;20043;-37
2023/05/14 17:25:00;;;;;;;5.28;3.22;;;;;;;15.39;42.10;100187.41;5068910;28;20044;-38
2023/05/14 17:27:28;;;;;;;8.57;4.50;;;;;;;15.36;42.09;100196.25;5082745;28;20035;-36
2023/05/14 17:29:53;;;;;;;11.52;4.63;;;;;;;15.32;42.68;100192.09;5066589;28;20047;-37
2023/05/14 17:32:20;;;;;;;10.88;6.78;;;;;;;15.13;42.43;100168.47;5067401;28;20040;-36
2023/05/14 17:34:46;;;;;;;4.22;3.47;;;;;;;15.06;42.12;100168.84;5084283;28;20040;-37
2023/05/14 17:37:11;;;;;;;6.75;3.45;;;;;;;15.19;42.11;100191.78;5069597;28;20040;-38
2023/05/14 17:39:37;;;;;;;4.55;3.38;;;;;;;15.11;42.30;100200.91;5068434;28;20040;-37
2023/05/14 17:42:03;;;;;;;4.78;3.55;;;;;;;15.05;42.55;100198.56;5088507;28;20036;-37
2023/05/14 17:44:29;;;;;;;7.97;3.58;;;;;;;14.95;42.66;100203.34;5081490;28;20048;-35
2023/05/14 17:46:55;;;;;;;6.13;3.40;;;;;;;14.79;43.03;100190.09;5085777;28;20040;-36
2023/05/14 17:49:21;;;;;;;5.70;3.30;;;;;;;14.75;43.10;100204.22;5052500;28;20431;-35
2023/05/14 17:51:47;;;;;;;9.80;4.22;;;;;;;14.53;43.51;100185.13;5068049;28;20556;-37
2023/05/14 17:54:13;;;;;;;7.00;3.25;;;;;;;14.57;43.78;100204.16;5065650;28;20444;-37
2023/05/14 17:56:39;;;;;;;4.18;3.10;;;;;;;14.41;44.00;100206.56;5083663;28;20129;-36
2023/05/14 17:59:05;;;;;;;4.43;3.10;;;;;;;14.35;44.25;100205.00;5081524;28;20032;-36
2023/05/14 18:01:31;;;;;;;6.72;3.40;;;;;;;14.27;44.35;100212.34;5086316;28;20040;-36
2023/05/14 18:03:57;;;;;;;4.25;3.47;;;;;;;14.17;44.64;100213.63;5078457;28;20062;-36
2023/05/14 18:06:23;;;;;;;7.22;3.00;;;;;;;14.07;44.84;100214.06;5069557;28;20538;-36
2023/05/14 18:08:49;;;;;;;5.40;3.15;;;;;;;13.97;45.22;100209.19;5083716;28;20534;-36
2023/05/14 18:11:15;;;;;;;4.18;2.90;;;;;;;13.88;45.41;100212.16;5070295;28;20039;-36
2023/05/14 18:13:40;;;;;;;3.88;2.97;;;;;;;13.69;45.81;100190.28;5084637;28;20784;-35
2023/05/14 18:16:07;;;;;;;5.53;3.03;;;;;;;13.43;45.97;100167.78;5074955;28;20426;-35
2023/05/14 18:18:32;;;;;;;9.52;3.38;;;;;;;13.66;45.97;100226.16;5049235;28;20151;-35
2023/05/14 18:20:59;;;;;;;9.13;4.85;;;;;;;13.60;46.54;100221.16;5081924;28;20086;-36
2023/05/14 18:23:25;;;;;;;5.72;3.75;;;;;;;13.52;46.42;100231.88;5059864;28;20036;-36
2023/05/14 18:25:51;;;;;;;5.85;3.65;;;;;;;13.44;46.64;100218.25;5086192;28;20576;-35
2023/05/14 18:28:17;;;;;;;5.53;4.10;;;;;;;13.39;46.64;100226.28;5066421;28;20054;-36
2023/05/14 18:30:44;;;;;;;12.77;3.80;;;;;;;13.30;47.09;100215.28;5077763;28;20530;-35
2023/05/14 18:33:10;;;;;;;7.00;3.60;;;;;;;13.29;47.08;100230.13;5064684;28;20462;-36
2023/05/14 18:35:36;;;;;;;5.57;3.33;;;;;;;13.24;47.55;100225.97;5084844;28;20032;-36
2023/05/14 18:38:02;;;;;;;13.93;4.43;;;;;;;13.05;47.25;100199.66;5074666;28;20052;-36
2023/05/14 18:40:28;;;;;;;9.85;4.03;;;;;;;13.13;47.83;100222.00;5068073;28;20046;-36
2023/05/14 18:42:55;;;;;;;13.15;4.70;;;;;;;13.09;47.87;100224.72;5067810;28;20130;-38
2023/05/14 18:45:22;;;;;;;7.90;3.80;;;;;;;13.02;47.61;100213.66;5064417;28;20036;-36
2023/05/14 18:47:49;;;;;;;7.07;3.72;;;;;;;13.00;47.70;100230.28;5065974;28;20529;-36
2023/05/14 18:50:15;;;;;;;5.47;3.72;;;;;;;12.95;48.21;100219.16;5064572;28;20467;-36
2023/05/14 18:52:41;;;;;;;6.10;3.33;;;;;;;12.92;48.34;100227.09;5081783;28;20052;-35
2023/05/14 18:55:07;;;;;;;4.95;3.17;;;;;;;12.86;48.45;100233.38;5062810;28;20040;-36
2023/05/14 18:57:33;;;;;;;6.03;3.25;;;;;;;12.82;48.51;100230.94;5086462;28;20040;-36
2023/05/14 19:00:00;;;;;;;8.10;3.15;;;;;;;12.79;48.74;100234.50;5065104;28;20036;-35
2023/05/14 19:02:30;;;;;;;8.45;3.45;;;;;;;12.71;48.97;100232.16;5066005;28;20062;-35
2023/05/14 19:04:55;;;;;;;9.77;4.85;;;;;;;12.71;49.02;100233.91;5064476;28;20512;-35
2023/05/14 19:07:21;;;;;;;7.82;3.80;;;;;;;12.66;49.35;100236.69;5030553;28;20101;-35
2023/05/14 19:09:47;;;;;;;11.02;4.88;;;;;;;12.62;49.58;100227.25;5051895;28;20044;-37
2023/05/14 19:12:13;;;;;;;13.48;4.90;;;;;;;12.60;49.42;100225.59;5063782;28;20040;-36
2023/05/14 19:14:39;;;;;;;10.98;4.55;;;;;;;12.56;49.97;100219.63;5043585;28;20089;-36
2023/05/14 19:17:05;;;;;;;10.88;4.25;;;;;;;12.51;50.03;100229.34;5084199;28;20039;-35